Time;durP1;ratioP1;P1;durP2;ratioP2;P2;SDS_P1;SDS_P2;PMS_P1;PMS_P2;Temp;Humidity;BMP_temperature;BMP_pressure;BME280_temperature;BME280_humidity;BME280_pressure;Samples;Min_cycle;Max_cycle;Signal;HPM_P1;HPM_P2
2021/04/15 00:00:45;;;;;;;0.60;0.60;;;0.90;99.90;;;;;;5033723;28;20405;-75
2021/04/15 00:03:18;;;;;;;0.70;0.70;;;0.80;99.90;;;;;;5034325;28;20181;-75
2021/04/15 00:05:45;;;;;;;1.00;0.90;;;0.80;99.90;;;;;;5033826;28;20210;-76
2021/04/15 00:08:14;;;;;;;1.48;1.48;;;0.80;99.90;;;;;;5045956;28;20177;-76
2021/04/15 00:10:44;;;;;;;0.55;0.55;;;0.70;99.90;;;;;;5053358;28;20165;-75
2021/04/15 00:13:22;;;;;;;0.50;0.50;;;0.70;99.90;;;;;;5039798;28;20224;-76
2021/04/15 00:15:51;;;;;;;0.70;0.70;;;0.70;99.90;;;;;;5032832;28;20202;-77
2021/04/15 00:18:17;;;;;;;0.40;0.40;;;0.70;99.90;;;;;;5045323;28;20187;-77
2021/04/15 00:20:43;;;;;;;0.80;0.80;;;0.70;99.90;;;;;;5053064;28;20352;-77
2021/04/15 00:23:10;;;;;;;13.07;1.60;;;0.70;99.90;;;;;;5041107;28;20185;-78
2021/04/15 00:25:36;;;;;;;1.10;1.10;;;0.60;99.90;;;;;;5032737;28;20209;-77
2021/04/15 00:28:02;;;;;;;0.93;0.93;;;0.60;99.90;;;;;;5042002;28;20222;-77
2021/04/15 00:30:28;;;;;;;1.00;1.00;;;0.60;99.90;;;;;;5035862;28;20178;-78
2021/04/15 00:32:53;;;;;;;0.60;0.60;;;0.60;99.90;;;;;;5040275;28;20438;-77
2021/04/15 00:35:20;;;;;;;1.80;0.93;;;0.50;99.90;;;;;;5052567;28;20208;-77
2021/04/15 00:37:47;;;;;;;1.02;1.02;;;0.50;99.90;;;;;;5046499;28;20528;-77
2021/04/15 00:40:15;;;;;;;3.90;2.10;;;0.40;99.90;;;;;;5033140;28;20174;-77
2021/04/15 00:42:41;;;;;;;0.60;0.60;;;0.40;99.90;;;;;;5037493;28;20177;-76
2021/04/15 00:45:12;;;;;;;0.60;0.60;;;0.40;99.90;;;;;;5052463;28;20675;-77
2021/04/15 00:47:41;;;;;;;2.10;2.00;;;0.40;99.90;;;;;;5048983;28;20213;-77
2021/04/15 00:50:14;;;;;;;0.93;0.93;;;0.40;99.90;;;;;;5032964;28;20263;-77
2021/04/15 00:52:49;;;;;;;0.65;0.65;;;0.30;99.90;;;;;;5040440;28;20180;-77
2021/04/15 00:55:20;;;;;;;0.93;0.93;;;0.30;99.90;;;;;;5052390;28;20185;-77
2021/04/15 00:57:48;;;;;;;0.93;0.93;;;0.30;99.90;;;;;;5048754;28;20679;-77
2021/04/15 01:00:17;;;;;;;0.90;0.90;;;0.30;99.90;;;;;;5032669;28;20257;-77
2021/04/15 01:02:43;;;;;;;1.15;1.10;;;0.20;99.90;;;;;;5035433;28;20214;-76
2021/04/15 01:05:12;;;;;;;0.60;0.60;;;0.20;99.90;;;;;;5054867;28;20654;-76
2021/04/15 01:07:38;;;;;;;1.00;0.90;;;0.20;99.90;;;;;;5054906;28;20239;-77
2021/04/15 01:10:05;;;;;;;0.73;0.73;;;0.20;99.90;;;;;;5036555;28;20579;-77
2021/04/15 01:12:52;;;;;;;0.70;0.70;;;0.20;99.90;;;;;;5036441;28;20174;-76
2021/04/15 01:15:37;;;;;;;1.33;1.25;;;0.10;99.90;;;;;;5036530;28;20166;-76
2021/04/15 01:18:12;;;;;;;1.25;1.15;;;0.10;99.90;;;;;;5045516;28;20239;-77
2021/04/15 01:21:02;;;;;;;2.58;2.38;;;0.00;99.90;;;;;;5056530;28;20209;-77
2021/04/15 01:23:36;;;;;;;0.85;0.85;;;0.00;99.90;;;;;;5044253;28;20175;-76
2021/04/15 01:26:30;;;;;;;0.82;0.75;;;0.00;99.90;;;;;;5035694;28;20689;-76
2021/04/15 01:29:06;;;;;;;2.30;2.20;;;0.00;99.90;;;;;;5052819;28;20169;-77
2021/04/15 01:31:41;;;;;;;0.75;0.75;;;-0.10;99.90;;;;;;5056314;28;20513;-77
2021/04/15 01:34:16;;;;;;;0.40;0.40;;;-0.10;99.90;;;;;;5035713;28;20173;-77
2021/04/15 01:36:48;;;;;;;1.10;1.10;;;-0.10;99.90;;;;;;5036081;28;20186;-76
2021/04/15 01:39:19;;;;;;;1.35;1.35;;;-0.10;99.90;;;;;;5054173;28;20181;-77
2021/04/15 01:42:09;;;;;;;1.02;0.93;;;-0.20;99.90;;;;;;5056108;28;20628;-77
2021/04/15 01:44:45;;;;;;;1.33;1.23;;;-0.20;99.90;;;;;;5035069;28;20692;-77
2021/04/15 01:47:16;;;;;;;0.98;0.93;;;-0.20;99.90;;;;;;5036481;28;20205;-77
2021/04/15 01:49:47;;;;;;;0.60;0.60;;;-0.30;99.90;;;;;;5055745;28;20207;-77
2021/04/15 01:52:15;;;;;;;1.20;1.10;;;-0.30;99.90;;;;;;5053617;28;20253;-78
2021/04/15 01:55:14;;;;;;;2.25;2.15;;;-0.30;99.90;;;;;;5035425;28;20200;-76
2021/04/15 01:58:02;;;;;;;2.22;2.10;;;-0.30;99.90;;;;;;5040560;28;20207;-76
2021/04/15 02:00:30;;;;;;;0.30;0.30;;;-0.30;99.90;;;;;;5054147;28;20539;-77
2021/04/15 02:03:06;;;;;;;2.03;1.85;;;-0.30;99.90;;;;;;5048550;28;20178;-76
2021/04/15 02:05:38;;;;;;;0.60;0.60;;;-0.30;99.90;;;;;;5035408;28;20682;-78
2021/04/15 02:08:08;;;;;;;1.30;1.20;;;-0.40;99.90;;;;;;5036487;28;20265;-77
2021/04/15 02:10:38;;;;;;;0.70;0.70;;;-0.30;99.90;;;;;;5035587;28;20162;-77
2021/04/15 02:13:08;;;;;;;1.38;1.38;;;-0.40;99.90;;;;;;5042170;28;20171;-76
2021/04/15 02:15:52;;;;;;;1.50;1.40;;;-0.30;99.90;;;;;;5036194;28;20285;-76
2021/04/15 02:18:46;;;;;;;2.33;1.55;;;-0.30;99.90;;;;;;5043107;28;20178;-77
2021/04/15 02:21:50;;;;;;;1.08;1.08;;;-0.30;99.90;;;;;;5054107;28;20181;-77
2021/04/15 02:24:46;;;;;;;1.23;1.17;;;-0.30;99.90;;;;;;5032624;28;20529;-78
2021/04/15 02:27:25;;;;;;;0.70;0.70;;;-0.30;99.90;;;;;;5026970;28;20228;-78
2021/04/15 02:29:59;;;;;;;1.33;1.25;;;-0.30;99.90;;;;;;5053407;28;20185;-78
2021/04/15 02:32:27;;;;;;;1.73;1.63;;;-0.30;99.90;;;;;;5036023;28;20170;-78
2021/04/15 02:35:02;;;;;;;1.50;1.40;;;-0.30;99.90;;;;;;5052269;28;20192;-77
2021/04/15 02:37:54;;;;;;;0.85;0.85;;;-0.30;99.90;;;;;;5051788;28;20189;-77
2021/04/15 02:40:26;;;;;;;1.00;1.00;;;-0.30;99.90;;;;;;5052843;28;20663;-78
2021/04/15 02:42:55;;;;;;;0.88;0.80;;;-0.40;99.90;;;;;;5037892;28;20218;-77
2021/04/15 02:45:32;;;;;;;1.00;1.00;;;-0.40;99.90;;;;;;5032511;28;20572;-77
2021/04/15 02:48:11;;;;;;;1.98;1.88;;;-0.40;99.90;;;;;;5048410;28;20182;-76
2021/04/15 02:50:39;;;;;;;2.65;1.40;;;-0.50;99.90;;;;;;5050007;28;20654;-77
2021/04/15 02:53:17;;;;;;;1.92;1.83;;;-0.50;99.90;;;;;;5038275;28;20277;-77
2021/04/15 02:55:55;;;;;;;2.50;2.40;;;-0.50;99.90;;;;;;5017475;28;20214;-77
2021/04/15 02:58:30;;;;;;;3.00;1.90;;;-0.50;99.90;;;;;;5034387;28;20185;-77
2021/04/15 03:00:57;;;;;;;1.02;0.90;;;-0.50;99.90;;;;;;5039248;28;20185;-80
2021/04/15 03:03:33;;;;;;;2.22;2.13;;;-0.60;99.90;;;;;;5035103;28;20174;-76
2021/04/15 03:06:09;;;;;;;2.45;1.52;;;-0.70;99.90;;;;;;5049015;28;20279;-76
2021/04/15 03:08:35;;;;;;;0.57;0.57;;;-0.70;99.90;;;;;;5036304;28;20162;-76
2021/04/15 03:11:24;;;;;;;2.53;1.33;;;-0.70;99.90;;;;;;5036050;28;20169;-76
2021/04/15 03:13:54;;;;;;;0.75;0.75;;;-0.80;99.90;;;;;;5034973;28;20930;-76
2021/04/15 03:16:24;;;;;;;0.70;0.70;;;-0.70;99.90;;;;;;5051281;28;20206;-76
2021/04/15 03:18:54;;;;;;;2.65;1.85;;;-0.80;99.90;;;;;;5055499;28;20174;-77
2021/04/15 03:21:39;;;;;;;0.47;0.47;;;-0.90;99.90;;;;;;5033293;28;20182;-78
2021/04/15 03:24:13;;;;;;;2.25;2.08;;;-0.90;99.90;;;;;;5048536;28;20182;-78
2021/04/15 03:26:47;;;;;;;1.27;1.17;;;-0.90;99.90;;;;;;5048434;28;20190;-76
2021/04/15 03:29:20;;;;;;;1.27;1.27;;;-1.00;99.90;;;;;;5033126;28;20170;-77
2021/04/15 03:32:09;;;;;;;1.75;1.65;;;-1.10;99.90;;;;;;5041521;28;20559;-76
2021/04/15 03:34:47;;;;;;;4.40;2.10;;;-1.20;99.90;;;;;;5055248;28;20184;-76
2021/04/15 03:37:19;;;;;;;0.50;0.50;;;-1.20;99.90;;;;;;5045303;28;20513;-77
2021/04/15 03:39:46;;;;;;;1.50;1.10;;;-1.30;99.90;;;;;;5035653;28;20221;-75
2021/04/15 03:42:32;;;;;;;1.10;0.90;;;-1.30;99.90;;;;;;5042540;28;20177;-76
2021/04/15 03:45:06;;;;;;;1.15;0.85;;;-1.30;99.90;;;;;;5045902;28;20590;-77
2021/04/15 03:47:43;;;;;;;0.63;0.63;;;-1.40;99.90;;;;;;5045916;28;20193;-78
2021/04/15 03:50:17;;;;;;;1.88;1.77;;;-1.40;99.90;;;;;;5054343;28;20165;-76
2021/04/15 03:52:53;;;;;;;1.05;0.75;;;-1.40;99.90;;;;;;5041630;28;20190;-77
2021/04/15 03:55:35;;;;;;;4.35;1.95;;;-1.40;99.90;;;;;;5032641;28;20509;-78
2021/04/15 03:58:30;;;;;;;1.48;1.48;;;-1.50;99.90;;;;;;5048624;28;20656;-76
2021/04/15 04:01:10;;;;;;;1.33;1.30;;;-1.50;99.90;;;;;;5053718;28;20231;-76
2021/04/15 04:03:39;;;;;;;0.93;0.93;;;-1.60;99.90;;;;;;5036146;28;20261;-76
2021/04/15 04:06:22;;;;;;;1.85;1.85;;;-1.70;99.90;;;;;;5034991;28;20201;-77
2021/04/15 04:08:57;;;;;;;0.57;0.57;;;-1.80;99.90;;;;;;5040742;28;20201;-75
2021/04/15 04:11:28;;;;;;;0.50;0.50;;;-1.80;99.90;;;;;;5046674;28;20205;-77
2021/04/15 04:13:58;;;;;;;1.98;1.88;;;-1.80;99.90;;;;;;5035888;28;20268;-77
2021/04/15 04:16:39;;;;;;;0.85;0.85;;;-1.90;99.90;;;;;;5036123;28;20212;-78
2021/04/15 04:19:19;;;;;;;1.10;0.80;;;-1.80;99.90;;;;;;5035622;28;20574;-77
2021/04/15 04:22:23;;;;;;;1.65;1.55;;;-1.90;99.90;;;;;;5035148;28;20231;-75
2021/04/15 04:25:23;;;;;;;1.20;1.20;;;-1.90;99.90;;;;;;5039079;28;20204;-76
2021/04/15 04:28:11;;;;;;;1.85;1.75;;;-1.80;99.90;;;;;;5044367;28;20253;-76
2021/04/15 04:30:59;;;;;;;1.10;0.98;;;-1.80;99.90;;;;;;5054884;28;20176;-76
2021/04/15 04:33:35;;;;;;;0.98;0.98;;;-1.90;99.90;;;;;;5041169;28;20188;-76
2021/04/15 04:36:00;;;;;;;0.60;0.60;;;-1.80;99.90;;;;;;5036076;28;20186;-76
2021/04/15 04:38:26;;;;;;;0.40;0.40;;;-1.80;99.90;;;;;;5035900;28;20182;-76
2021/04/15 04:40:57;;;;;;;2.20;2.10;;;-1.80;99.90;;;;;;5058034;28;20181;-75
2021/04/15 04:43:44;;;;;;;1.95;1.85;;;-1.70;99.90;;;;;;5046053;28;20424;-77
2021/04/15 04:46:17;;;;;;;0.98;0.98;;;-1.70;99.90;;;;;;5048814;28;20208;-76
2021/04/15 04:49:10;;;;;;;2.35;2.25;;;-1.70;99.90;;;;;;5043358;28;20178;-75
2021/04/15 04:51:50;;;;;;;1.88;1.77;;;-1.60;99.90;;;;;;5052604;28;20169;-76
2021/04/15 04:54:19;;;;;;;2.40;1.40;;;-1.60;99.90;;;;;;5056603;28;20582;-78
2021/04/15 04:57:26;;;;;;;0.30;0.30;;;-1.60;99.90;;;;;;5042239;28;20186;-78
2021/04/15 05:00:06;;;;;;;0.80;0.80;;;-1.50;99.90;;;;;;5036217;28;20209;-76
2021/04/15 05:02:32;;;;;;;0.82;0.82;;;-1.50;99.90;;;;;;5036913;28;20208;-78
2021/04/15 05:05:16;;;;;;;1.20;1.20;;;-1.30;99.90;;;;;;5036452;28;20672;-77
2021/04/15 05:07:44;;;;;;;1.30;1.30;;;-1.20;99.90;;;;;;5036843;28;20408;-73
2021/04/15 05:10:17;;;;;;;1.08;1.08;;;-1.10;99.90;;;;;;5036633;28;20178;-74
2021/04/15 05:12:45;;;;;;;1.65;1.52;;;-1.10;99.90;;;;;;5049204;28;20260;-76
2021/04/15 05:15:12;;;;;;;1.17;1.17;;;-1.00;99.90;;;;;;5056131;28;20256;-78
2021/04/15 05:17:41;;;;;;;0.90;0.90;;;-0.80;99.90;;;;;;5056119;28;20197;-75
2021/04/15 05:20:14;;;;;;;1.13;1.08;;;-0.70;99.90;;;;;;5055952;28;20563;-74
2021/04/15 05:22:45;;;;;;;2.60;1.63;;;-0.60;99.90;;;;;;5036492;28;20264;-76
2021/04/15 05:25:27;;;;;;;2.30;2.00;;;-0.50;99.90;;;;;;5037799;28;21652;-75
2021/04/15 05:27:53;;;;;;;4.10;2.70;;;-0.40;99.90;;;;;;5054957;28;20212;-73
2021/04/15 05:30:37;;;;;;;1.80;1.73;;;-0.20;99.90;;;;;;5052948;28;20225;-76
2021/04/15 05:33:05;;;;;;;2.03;1.92;;;0.00;99.90;;;;;;5036374;28;20831;-77
2021/04/15 05:35:39;;;;;;;1.38;1.38;;;-0.10;99.90;;;;;;5045813;28;20165;-76
2021/04/15 05:38:10;;;;;;;1.50;1.50;;;-0.20;99.90;;;;;;5055424;28;20246;-77
2021/04/15 05:40:37;;;;;;;1.35;1.25;;;-0.30;99.90;;;;;;5040428;28;20193;-75
2021/04/15 05:43:27;;;;;;;1.52;1.42;;;-0.40;99.90;;;;;;5035810;28;20182;-71
2021/04/15 05:46:06;;;;;;;1.55;1.45;;;-0.30;99.90;;;;;;5051965;28;20213;-74
2021/04/15 05:48:34;;;;;;;2.25;1.98;;;-0.30;99.90;;;;;;5055587;28;20176;-73
2021/04/15 05:51:06;;;;;;;1.75;1.75;;;-0.20;99.90;;;;;;5053343;28;20192;-78
2021/04/15 05:53:49;;;;;;;3.55;2.20;;;0.00;99.90;;;;;;5055764;28;20169;-79
2021/04/15 05:56:24;;;;;;;3.35;3.03;;;0.20;99.90;;;;;;5035797;28;20194;-75
2021/04/15 05:58:58;;;;;;;1.63;1.52;;;0.20;99.90;;;;;;5036886;28;20201;-77
2021/04/15 06:01:29;;;;;;;2.25;1.95;;;0.20;99.90;;;;;;5056303;28;20180;-75
2021/04/15 06:04:18;;;;;;;3.92;3.33;;;0.20;99.90;;;;;;5053178;28;20181;-74
2021/04/15 06:06:44;;;;;;;1.42;1.42;;;0.30;99.90;;;;;;5033882;28;20205;-70
2021/04/15 06:09:11;;;;;;;2.25;2.15;;;0.40;99.90;;;;;;5053722;28;20200;-72
2021/04/15 06:11:59;;;;;;;1.75;1.63;;;0.60;99.90;;;;;;5055330;28;20166;-74
2021/04/15 06:14:29;;;;;;;1.08;1.05;;;0.90;99.90;;;;;;5034886;28;20170;-74
2021/04/15 06:17:12;;;;;;;2.80;1.42;;;1.40;99.90;;;;;;5034048;28;20285;-73
2021/04/15 06:19:39;;;;;;;1.35;1.35;;;2.00;99.90;;;;;;5038272;28;20252;-75
2021/04/15 06:22:22;;;;;;;2.15;2.05;;;2.40;99.90;;;;;;5035087;28;20166;-77
2021/04/15 06:24:52;;;;;;;3.80;3.50;;;2.60;99.90;;;;;;5033316;28;20288;-77
2021/04/15 06:27:19;;;;;;;4.95;4.45;;;2.90;99.90;;;;;;5035434;28;20296;-77
2021/04/15 06:30:29;;;;;;;3.22;2.95;;;3.40;99.90;;;;;;5034854;28;20162;-75
2021/04/15 06:33:10;;;;;;;6.35;3.33;;;4.00;99.90;;;;;;5034551;28;20190;-73
2021/04/15 06:35:36;;;;;;;5.20;2.85;;;4.50;99.90;;;;;;5039807;28;20250;-77
2021/04/15 06:38:07;;;;;;;3.42;2.22;;;4.80;99.90;;;;;;5054924;28;20274;-75
2021/04/15 06:41:10;;;;;;;3.60;2.83;;;5.10;99.90;;;;;;5051587;28;20182;-74
2021/04/15 06:43:55;;;;;;;2.60;2.40;;;5.40;99.90;;;;;;5034461;28;20173;-74
2021/04/15 06:46:42;;;;;;;2.45;2.28;;;5.60;99.90;;;;;;5051238;28;20213;-75
2021/04/15 06:49:25;;;;;;;4.32;2.17;;;5.90;99.90;;;;;;5052699;28;20230;-75
2021/04/15 06:51:59;;;;;;;2.60;2.40;;;6.00;99.90;;;;;;5054077;28;20168;-75
2021/04/15 06:54:37;;;;;;;4.40;2.75;;;6.00;99.90;;;;;;5053861;28;20169;-75
2021/04/15 06:57:19;;;;;;;5.60;3.28;;;6.00;99.90;;;;;;5049459;28;20190;-76
2021/04/15 07:00:17;;;;;;;3.13;2.63;;;6.10;99.90;;;;;;5034405;28;20170;-76
2021/04/15 07:02:49;;;;;;;3.15;2.85;;;6.30;99.90;;;;;;5034072;28;20177;-75
2021/04/15 07:05:25;;;;;;;4.15;3.83;;;6.50;99.90;;;;;;5034848;28;20198;-77
2021/04/15 07:08:05;;;;;;;3.45;2.88;;;7.00;99.90;;;;;;5054456;28;20527;-76
2021/04/15 07:10:59;;;;;;;3.47;3.17;;;7.30;99.20;;;;;;5053745;28;20197;-74
2021/04/15 07:14:01;;;;;;;5.25;4.07;;;7.80;98.10;;;;;;5054105;28;20193;-73
2021/04/15 07:16:41;;;;;;;5.70;4.80;;;8.30;97.10;;;;;;5052743;28;20200;-75
2021/04/15 07:19:22;;;;;;;4.57;4.18;;;8.80;96.00;;;;;;5054121;28;20197;-74
2021/04/15 07:22:12;;;;;;;5.90;4.07;;;9.30;95.60;;;;;;5054088;28;20241;-74
2021/04/15 07:25:13;;;;;;;7.50;4.43;;;9.60;92.80;;;;;;5053469;28;20445;-74
2021/04/15 07:28:16;;;;;;;3.70;3.40;;;9.80;91.10;;;;;;5044593;28;20422;-74
2021/04/15 07:31:24;;;;;;;9.53;4.63;;;9.80;91.20;;;;;;5034246;28;20404;-75
2021/04/15 07:34:06;;;;;;;8.47;5.77;;;9.70;90.80;;;;;;5033357;28;20415;-74
2021/04/15 07:36:59;;;;;;;7.97;4.10;;;10.20;90.20;;;;;;5033713;28;20443;-74
2021/04/15 07:39:38;;;;;;;8.37;4.23;;;10.40;90.40;;;;;;5033702;28;20462;-74
2021/04/15 07:42:15;;;;;;;6.47;3.90;;;10.80;89.70;;;;;;5033365;28;20769;-74
2021/04/15 07:44:53;;;;;;;7.27;3.40;;;11.00;84.10;;;;;;5033116;28;20439;-74
2021/04/15 07:47:56;;;;;;;7.60;3.27;;;11.20;82.20;;;;;;5033995;28;20429;-74
2021/04/15 07:51:09;;;;;;;7.30;4.20;;;11.50;80.30;;;;;;5035134;28;20425;-73
2021/04/15 07:54:03;;;;;;;5.63;2.83;;;12.40;80.00;;;;;;5032834;28;20411;-74
2021/04/15 07:57:05;;;;;;;5.67;2.93;;;13.60;76.90;;;;;;5033231;28;20420;-73
2021/04/15 07:59:43;;;;;;;5.50;3.10;;;14.70;71.20;;;;;;5031883;28;20429;-72
2021/04/15 08:02:27;;;;;;;8.60;3.20;;;15.80;65.40;;;;;;5033354;28;20407;-72
2021/04/15 08:04:56;;;;;;;6.70;3.40;;;16.30;60.90;;;;;;5032705;28;20444;-72
2021/04/15 08:07:27;;;;;;;4.60;2.33;;;16.90;59.80;;;;;;5033178;28;20831;-74
2021/04/15 08:10:04;;;;;;;4.87;1.90;;;17.10;59.90;;;;;;5033226;28;20433;-73
2021/04/15 08:12:41;;;;;;;5.20;2.67;;;17.40;56.60;;;;;;5051410;28;20387;-73
2021/04/15 08:15:23;;;;;;;7.37;2.90;;;17.40;55.50;;;;;;5052021;28;20485;-73
2021/04/15 08:18:36;;;;;;;5.63;2.23;;;17.50;56.40;;;;;;5052959;28;20405;-73
2021/04/15 08:21:46;;;;;;;5.40;2.30;;;17.90;55.50;;;;;;5050314;28;20454;-73
2021/04/15 08:24:33;;;;;;;4.90;2.23;;;18.20;54.80;;;;;;5030397;28;20446;-74
2021/04/15 08:27:35;;;;;;;4.60;2.00;;;18.40;53.10;;;;;;5032924;28;20515;-75
2021/04/15 08:30:29;;;;;;;4.40;3.00;;;18.40;53.10;;;;;;5031683;28;20427;-74
2021/04/15 08:33:03;;;;;;;5.23;2.63;;;18.60;53.00;;;;;;5033102;28;20365;-73
2021/04/15 08:35:40;;;;;;;5.40;2.77;;;18.00;52.40;;;;;;5049194;28;20414;-73
2021/04/15 08:38:22;;;;;;;4.67;3.03;;;18.10;52.60;;;;;;5051608;28;20400;-74
2021/04/15 08:40:56;;;;;;;5.13;2.77;;;17.90;52.10;;;;;;5052761;28;20541;-73
2021/04/15 08:43:37;;;;;;;4.23;2.30;;;18.40;52.30;;;;;;5041293;28;20380;-72
2021/04/15 08:46:33;;;;;;;4.53;2.60;;;19.00;51.10;;;;;;5032351;28;20439;-71
2021/04/15 08:49:14;;;;;;;5.53;2.57;;;19.40;50.10;;;;;;5031384;28;20413;-75
2021/04/15 08:52:02;;;;;;;4.67;2.53;;;19.70;51.20;;;;;;5032741;28;20696;-73
2021/04/15 08:54:37;;;;;;;6.33;3.00;;;19.30;51.00;;;;;;5032555;28;20482;-74
2021/04/15 08:57:37;;;;;;;5.00;2.97;;;19.60;50.30;;;;;;5034403;28;20422;-73
2021/04/15 09:00:25;;;;;;;5.57;3.00;;;19.90;50.20;;;;;;5052402;28;20462;-72
2021/04/15 09:03:19;;;;;;;5.00;2.80;;;20.10;50.10;;;;;;5052391;28;20396;-73
2021/04/15 09:06:09;;;;;;;5.13;3.10;;;20.30;50.30;;;;;;5051977;28;20784;-74
2021/04/15 09:08:56;;;;;;;8.73;3.27;;;20.50;49.80;;;;;;5052581;28;20367;-72
2021/04/15 09:11:35;;;;;;;4.40;2.43;;;20.90;48.30;;;;;;5052190;28;20400;-73
2021/04/15 09:14:03;;;;;;;4.33;2.77;;;21.10;49.50;;;;;;5032269;28;20412;-72
2021/04/15 09:16:41;;;;;;;4.90;2.70;;;21.20;48.40;;;;;;5032287;28;20396;-72
2021/04/15 09:19:07;;;;;;;4.27;2.10;;;20.80;46.70;;;;;;5032536;28;20410;-73
2021/04/15 09:22:06;;;;;;;4.10;2.20;;;20.80;46.20;;;;;;5044383;28;20398;-72
2021/04/15 09:24:47;;;;;;;3.87;1.83;;;21.00;45.80;;;;;;5049017;28;20182;-72
2021/04/15 09:27:28;;;;;;;4.33;2.03;;;21.00;45.50;;;;;;5056154;28;20444;-71
2021/04/15 09:30:05;;;;;;;3.97;2.10;;;20.90;44.80;;;;;;5043614;28;20478;-72
2021/04/15 09:32:48;;;;;;;4.43;2.30;;;20.70;45.20;;;;;;5035616;28;20789;-72
2021/04/15 09:35:47;;;;;;;3.97;1.90;;;20.20;44.40;;;;;;5035299;28;20858;-73
2021/04/15 09:38:43;;;;;;;4.00;1.93;;;18.70;45.00;;;;;;5035805;28;20409;-71
2021/04/15 09:41:27;;;;;;;3.60;1.60;;;17.40;46.40;;;;;;5044396;28;20447;-73
2021/04/15 09:44:08;;;;;;;3.93;2.00;;;16.10;47.70;;;;;;5049247;28;20506;-72
2021/04/15 09:46:52;;;;;;;4.00;2.00;;;14.50;50.00;;;;;;5044397;28;20864;-75
2021/04/15 09:49:37;;;;;;;4.67;1.90;;;13.80;51.80;;;;;;5049262;28;20435;-75
2021/04/15 09:52:27;;;;;;;4.10;1.90;;;13.60;51.60;;;;;;5051126;28;20548;-72
2021/04/15 09:55:22;;;;;;;3.87;1.90;;;14.90;50.80;;;;;;5054612;28;20470;-71
2021/04/15 09:58:09;;;;;;;4.37;2.00;;;16.40;51.20;;;;;;5047348;28;20416;-72
2021/04/15 10:00:37;;;;;;;4.07;1.77;;;17.60;48.90;;;;;;5045079;28;20425;-76
2021/04/15 10:03:10;;;;;;;4.40;1.90;;;18.40;47.00;;;;;;5044668;28;20901;-74
2021/04/15 10:05:48;;;;;;;4.80;2.00;;;17.40;49.20;;;;;;5043717;28;20464;-74
2021/04/15 10:08:36;;;;;;;4.50;2.30;;;16.00;51.70;;;;;;5047954;28;20419;-76
2021/04/15 10:11:16;;;;;;;5.87;2.70;;;14.80;53.70;;;;;;5047841;28;20427;-76
2021/04/15 10:14:23;;;;;;;4.53;2.07;;;13.20;55.20;;;;;;5050249;28;20762;-73
2021/04/15 10:16:56;;;;;;;5.10;2.43;;;12.40;57.90;;;;;;5047313;28;20440;-72
2021/04/15 10:19:51;;;;;;;5.30;2.40;;;12.40;58.20;;;;;;5055325;28;20460;-72
2021/04/15 10:23:07;;;;;;;4.23;1.97;;;12.90;57.20;;;;;;5042227;28;20931;-77
2021/04/15 10:25:40;;;;;;;4.60;2.17;;;12.70;56.50;;;;;;5033970;28;20464;-76
2021/04/15 10:28:17;;;;;;;5.00;1.70;;;12.20;57.40;;;;;;5036532;28;21230;-72
2021/04/15 10:31:17;;;;;;;8.40;2.87;;;11.40;57.60;;;;;;5041092;28;20922;-72
2021/04/15 10:34:04;;;;;;;5.63;2.57;;;10.80;59.40;;;;;;5039354;28;20933;-73
2021/04/15 10:36:52;;;;;;;4.80;2.23;;;10.40;61.90;;;;;;5045658;28;20479;-75
2021/04/15 10:39:45;;;;;;;4.55;1.95;;;10.00;61.40;;;;;;5043649;28;20410;-68
2021/04/15 10:42:35;;;;;;;4.82;2.35;;;9.90;64.10;;;;;;5049428;28;20169;-72
2021/04/15 10:45:17;;;;;;;6.00;1.67;;;9.60;65.80;;;;;;5051177;28;20267;-70
2021/04/15 10:47:49;;;;;;;4.80;2.08;;;9.40;64.60;;;;;;5054805;28;20601;-71
2021/04/15 10:50:26;;;;;;;7.85;2.40;;;9.30;63.80;;;;;;5039021;28;20264;-71
2021/04/15 10:53:04;;;;;;;4.65;1.70;;;9.00;66.50;;;;;;5035021;28;20173;-72
2021/04/15 10:55:32;;;;;;;4.18;1.70;;;8.90;67.90;;;;;;5053160;28;20528;-71
2021/04/15 10:58:33;;;;;;;5.53;1.60;;;9.50;68.40;;;;;;5053038;28;20178;-68
2021/04/15 11:01:27;;;;;;;3.58;1.30;;;10.50;63.90;;;;;;5034462;28;20633;-68
2021/04/15 11:03:58;;;;;;;4.30;1.50;;;11.40;60.80;;;;;;5047640;28;20186;-70
2021/04/15 11:06:41;;;;;;;3.50;1.20;;;12.10;58.10;;;;;;5050024;28;20521;-71
2021/04/15 11:09:28;;;;;;;3.83;1.60;;;12.50;57.80;;;;;;5048499;28;20424;-69
2021/04/15 11:11:59;;;;;;;4.40;1.47;;;12.80;58.10;;;;;;5053720;28;20499;-70
2021/04/15 11:14:35;;;;;;;3.53;1.33;;;12.60;57.30;;;;;;5035167;28;20378;-69
2021/04/15 11:17:22;;;;;;;4.47;2.00;;;12.20;57.90;;;;;;5032674;28;20493;-69
2021/04/15 11:19:49;;;;;;;5.60;1.83;;;11.80;57.80;;;;;;5034109;28;20764;-69
2021/04/15 11:22:31;;;;;;;4.68;1.98;;;11.50;58.20;;;;;;5041297;28;20463;-69
2021/04/15 11:25:24;;;;;;;6.72;1.88;;;10.90;59.00;;;;;;5034515;28;20200;-69
2021/04/15 11:27:51;;;;;;;3.90;1.58;;;10.50;60.00;;;;;;5032651;28;20296;-69
2021/04/15 11:30:35;;;;;;;3.83;1.17;;;10.30;60.70;;;;;;5036726;28;20181;-70
2021/04/15 11:33:04;;;;;;;4.68;1.42;;;10.20;60.70;;;;;;5032702;28;20182;-70
2021/04/15 11:35:29;;;;;;;3.97;1.63;;;10.20;60.90;;;;;;5040033;28;20571;-70
2021/04/15 11:38:24;;;;;;;6.97;1.33;;;10.30;61.10;;;;;;5053871;28;20165;-70
2021/04/15 11:40:52;;;;;;;4.93;1.80;;;10.30;61.00;;;;;;5044281;28;20166;-70
2021/04/15 11:43:33;;;;;;;3.72;1.00;;;10.20;60.50;;;;;;5034705;28;20252;-70
2021/04/15 11:46:34;;;;;;;3.45;1.25;;;10.20;60.70;;;;;;5049956;28;20204;-70
2021/04/15 11:49:23;;;;;;;4.63;1.45;;;10.10;59.70;;;;;;5039749;28;20268;-70
2021/04/15 11:52:12;;;;;;;4.55;1.13;;;9.80;62.80;;;;;;5033267;28;20166;-71
2021/04/15 11:54:52;;;;;;;3.90;1.35;;;9.80;65.40;;;;;;5049319;28;20177;-71
2021/04/15 11:57:21;;;;;;;3.60;1.20;;;10.00;60.30;;;;;;5034886;28;20221;-71
2021/04/15 11:59:56;;;;;;;4.43;1.55;;;10.20;58.40;;;;;;5048776;28;20528;-70
2021/04/15 12:02:31;;;;;;;3.08;0.80;;;10.40;58.10;;;;;;5053197;28;20276;-70
2021/04/15 12:05:20;;;;;;;4.05;1.65;;;10.50;59.20;;;;;;5034006;28;20660;-72
2021/04/15 12:07:57;;;;;;;3.97;1.60;;;10.60;58.20;;;;;;5033058;28;20177;-70
2021/04/15 12:10:28;;;;;;;4.10;1.25;;;10.80;57.80;;;;;;5036792;28;20204;-70
2021/04/15 12:13:00;;;;;;;4.50;2.33;;;11.00;57.60;;;;;;5052046;28;20249;-70
2021/04/15 12:15:32;;;;;;;4.60;1.70;;;11.10;57.50;;;;;;5049787;28;20213;-69
2021/04/15 12:18:17;;;;;;;4.07;1.42;;;11.10;57.60;;;;;;5033422;28;20178;-69
2021/04/15 12:20:53;;;;;;;4.13;0.98;;;10.90;57.40;;;;;;5052978;28;20173;-69
2021/04/15 12:23:34;;;;;;;3.70;1.40;;;10.70;58.40;;;;;;5050214;28;20176;-69
2021/04/15 12:26:08;;;;;;;3.50;1.38;;;10.90;58.40;;;;;;5032644;28;20205;-70
2021/04/15 12:28:46;;;;;;;3.75;1.33;;;11.00;57.50;;;;;;5052426;28;20177;-70
2021/04/15 12:31:25;;;;;;;3.70;1.25;;;11.20;57.90;;;;;;5038921;28;20641;-70
2021/04/15 12:34:39;;;;;;;3.78;1.45;;;11.10;57.30;;;;;;5052879;28;20165;-71
2021/04/15 12:37:15;;;;;;;3.90;1.10;;;11.00;57.70;;;;;;5043030;28;20205;-68
2021/04/15 12:40:02;;;;;;;3.83;1.17;;;11.00;56.40;;;;;;5032671;28;20162;-69
2021/04/15 12:42:29;;;;;;;3.33;0.98;;;10.60;55.10;;;;;;5041464;28;20176;-69
2021/04/15 12:44:58;;;;;;;3.33;1.30;;;10.50;55.90;;;;;;5050606;28;20189;-69
2021/04/15 12:47:25;;;;;;;3.53;1.05;;;10.30;55.00;;;;;;5048086;28;20197;-69
2021/04/15 12:49:52;;;;;;;4.68;1.63;;;10.20;54.10;;;;;;5049319;28;20170;-69
2021/04/15 12:52:18;;;;;;;3.63;1.33;;;10.10;54.10;;;;;;5033817;28;20253;-69
2021/04/15 12:54:44;;;;;;;3.55;1.10;;;10.00;55.20;;;;;;5032387;28;20216;-69
2021/04/15 12:57:14;;;;;;;5.32;1.67;;;9.90;60.20;;;;;;5045722;28;20189;-70
2021/04/15 12:59:40;;;;;;;3.85;1.35;;;9.90;64.60;;;;;;5052268;28;20267;-69
2021/04/15 13:02:21;;;;;;;3.70;1.20;;;9.90;64.70;;;;;;5044696;28;20245;-71
2021/04/15 13:04:54;;;;;;;3.30;0.75;;;9.90;63.30;;;;;;5037146;28;20197;-69
2021/04/15 13:07:22;;;;;;;3.90;1.25;;;9.60;60.80;;;;;;5036459;28;20185;-69
2021/04/15 13:09:51;;;;;;;4.78;1.70;;;9.50;62.00;;;;;;5039829;28;20576;-68
2021/04/15 13:12:19;;;;;;;3.92;1.40;;;9.40;62.60;;;;;;5036468;28;20197;-69
2021/04/15 13:14:48;;;;;;;3.72;1.00;;;9.40;64.20;;;;;;5036148;28;20220;-70
2021/04/15 13:17:34;;;;;;;4.10;1.10;;;9.40;65.30;;;;;;5036161;28;20228;-70
2021/04/15 13:20:04;;;;;;;4.70;1.92;;;9.50;65.30;;;;;;5046002;28;20287;-70
2021/04/15 13:22:36;;;;;;;3.60;1.20;;;9.80;61.80;;;;;;5054331;28;20272;-68
2021/04/15 13:25:02;;;;;;;3.90;1.45;;;9.80;58.20;;;;;;5054090;28;20266;-69
2021/04/15 13:27:37;;;;;;;3.00;0.70;;;9.90;57.80;;;;;;5054817;28;20588;-69
2021/04/15 13:30:22;;;;;;;3.17;1.05;;;10.00;57.00;;;;;;5037354;28;20178;-69
2021/04/15 13:33:10;;;;;;;5.90;1.58;;;10.10;57.60;;;;;;5036034;28;20191;-69
2021/04/15 13:35:41;;;;;;;4.07;1.27;;;10.00;57.40;;;;;;5043835;28;20234;-69
2021/04/15 13:38:34;;;;;;;3.83;1.20;;;10.00;57.30;;;;;;5053137;28;20184;-69
2021/04/15 13:41:11;;;;;;;4.15;1.50;;;9.90;58.80;;;;;;5035835;28;20170;-69
2021/04/15 13:44:03;;;;;;;3.83;0.90;;;9.90;59.10;;;;;;5034892;28;20174;-71
2021/04/15 13:46:48;;;;;;;3.78;1.40;;;9.90;61.60;;;;;;5035688;28;20193;-68
2021/04/15 13:49:15;;;;;;;3.28;1.13;;;10.10;58.40;;;;;;5041542;28;20177;-69
2021/04/15 13:51:53;;;;;;;4.35;1.30;;;10.10;59.00;;;;;;5036695;28;20174;-69